Time;durP1;ratioP1;P1;durP2;ratioP2;P2;SDS_P1;SDS_P2;PMS_P1;PMS_P2;Temp;Humidity;BMP_temperature;BMP_pressure;BME280_temperature;BME280_humidity;BME280_pressure;Samples;Min_cycle;Max_cycle;Signal;HPM_P1;HPM_P2
2022/03/31 00:04:38;;;;;;;;;;;;;;;6.49;68.24;96193.66;12827147;23;19928;-80
2022/03/31 00:09:59;;;;;;;;;;;;;;;6.46;67.89;96194.13;12815497;23;19956;-79
2022/03/31 00:15:20;;;;;;;;;;;;;;;6.41;67.95;96207.03;12835668;23;19926;-80
2022/03/31 00:20:41;;;;;;;;;;;;;;;6.41;67.81;96203.56;12855522;23;19916;-80
2022/03/31 00:26:05;;;;;;;;;;;;;;;6.39;68.08;96204.16;12834559;23;19904;-81
2022/03/31 00:31:26;;;;;;;;;;;;;;;6.44;68.26;96189.19;12834594;23;19905;-80
2022/03/31 00:36:46;;;;;;;;;;;;;;;6.44;67.68;96186.41;12809136;23;19920;-79
2022/03/31 00:42:08;;;;;;;;;;;;;;;6.40;67.82;96186.19;12854660;23;19904;-79
2022/03/31 00:47:34;;;;;;;;;;;;;;;6.42;67.75;96189.09;12813969;23;22749;-80
2022/03/31 00:52:54;;;;;;;;;;;;;;;6.43;67.97;96175.94;12834049;23;19972;-80
2022/03/31 00:58:36;;;;;;;;;;;;;;;6.42;67.98;96180.78;12860081;23;19923;-80
2022/03/31 01:03:57;;;;;;;;;;;;;;;6.39;67.98;96187.53;12828937;23;19920;-80
2022/03/31 01:09:19;;;;;;;;;;;;;;;6.46;67.67;96186.53;12838419;23;19920;-80
2022/03/31 01:14:39;;;;;;;;;;;;;;;6.42;67.96;96189.09;12838720;23;19963;-80
2022/03/31 01:20:00;;;;;;;;;;;;;;;6.35;67.88;96173.41;12858448;23;19904;-79
2022/03/31 01:25:21;;;;;;;;;;;;;;;6.30;67.75;96171.75;12857274;23;19930;-80
2022/03/31 01:30:42;;;;;;;;;;;;;;;6.26;67.71;96171.50;12879292;23;19920;-81
2022/03/31 01:36:04;;;;;;;;;;;;;;;6.24;68.08;96160.31;12857680;23;19920;-80
2022/03/31 01:41:25;;;;;;;;;;;;;;;6.26;68.06;96157.66;12838127;23;19908;-81
2022/03/31 01:46:48;;;;;;;;;;;;;;;6.24;68.06;96163.78;12823041;23;19911;-80
2022/03/31 01:52:09;;;;;;;;;;;;;;;6.21;68.07;96165.00;12816925;23;19911;-80
2022/03/31 01:57:30;;;;;;;;;;;;;;;6.26;68.17;96172.22;12837450;23;19904;-81
2022/03/31 02:02:51;;;;;;;;;;;;;;;6.32;67.99;96161.50;12834936;23;19911;-79
2022/03/31 02:08:12;;;;;;;;;;;;;;;6.35;68.20;96156.06;12837116;23;19927;-80
2022/03/31 02:13:33;;;;;;;;;;;;;;;6.30;67.80;96144.03;12837414;23;19919;-80
2022/03/31 02:18:54;;;;;;;;;;;;;;;6.30;68.22;96149.59;12816561;23;19915;-80
2022/03/31 02:24:15;;;;;;;;;;;;;;;6.27;67.95;96148.00;12837563;23;19904;-80
2022/03/31 02:29:36;;;;;;;;;;;;;;;6.25;68.11;96147.91;12837012;23;19920;-79
2022/03/31 02:34:57;;;;;;;;;;;;;;;6.16;68.30;96140.44;12857864;23;19920;-80
2022/03/31 02:40:18;;;;;;;;;;;;;;;6.16;68.26;96141.16;12837426;23;19904;-80
2022/03/31 02:45:39;;;;;;;;;;;;;;;6.13;68.36;96144.41;12826335;23;19911;-79
2022/03/31 02:51:00;;;;;;;;;;;;;;;6.12;68.20;96138.16;12836639;23;19935;-79
2022/03/31 02:56:21;;;;;;;;;;;;;;;6.11;68.48;96138.75;12836465;23;19927;-81
2022/03/31 03:01:43;;;;;;;;;;;;;;;6.13;68.15;96136.81;12836998;23;19920;-79
2022/03/31 03:07:05;;;;;;;;;;;;;;;6.14;68.00;96132.00;12818024;23;19904;-80
2022/03/31 03:12:26;;;;;;;;;;;;;;;6.11;68.18;96127.69;12857184;23;19904;-80
2022/03/31 03:17:47;;;;;;;;;;;;;;;6.13;68.10;96122.97;12857437;23;19920;-80
2022/03/31 03:23:09;;;;;;;;;;;;;;;6.07;68.37;96128.16;12856988;23;19904;-80
2022/03/31 03:28:30;;;;;;;;;;;;;;;6.10;68.48;96129.00;12836259;23;19905;-80
2022/03/31 03:33:51;;;;;;;;;;;;;;;6.08;68.16;96120.56;12836679;23;19919;-79
2022/03/31 03:39:12;;;;;;;;;;;;;;;5.99;67.88;96109.03;12836685;23;19931;-81
2022/03/31 03:44:35;;;;;;;;;;;;;;;5.96;68.28;96107.44;12830077;23;19944;-80
2022/03/31 03:49:55;;;;;;;;;;;;;;;5.88;68.21;96109.72;12835536;23;19928;-80
2022/03/31 03:55:17;;;;;;;;;;;;;;;5.84;68.84;96100.47;12852793;23;19927;-80
2022/03/31 04:00:39;;;;;;;;;;;;;;;5.84;68.47;96103.22;12847724;23;19920;-80
2022/03/31 04:06:00;;;;;;;;;;;;;;;5.89;68.63;96091.78;12806869;23;20347;-79
2022/03/31 04:11:23;;;;;;;;;;;;;;;5.77;68.17;96096.59;12845388;23;19921;-80
2022/03/31 04:16:45;;;;;;;;;;;;;;;5.73;68.21;96097.09;12846223;23;19944;-80
2022/03/31 04:22:06;;;;;;;;;;;;;;;5.71;68.56;96090.72;12843192;23;19940;-80
2022/03/31 04:27:27;;;;;;;;;;;;;;;5.72;68.17;96086.63;12843771;23;19939;-80
2022/03/31 04:32:48;;;;;;;;;;;;;;;5.70;68.16;96092.03;12839270;23;19928;-80
2022/03/31 04:38:09;;;;;;;;;;;;;;;5.76;68.38;96089.63;12838354;23;19932;-80
2022/03/31 04:43:31;;;;;;;;;;;;;;;5.77;68.49;96095.88;12837170;23;19911;-80
2022/03/31 04:48:51;;;;;;;;;;;;;;;5.89;68.43;96094.56;12820497;23;19924;-80
2022/03/31 04:54:13;;;;;;;;;;;;;;;5.96;68.21;96095.66;12826524;23;19931;-79
2022/03/31 04:59:34;;;;;;;;;;;;;;;5.94;68.52;96103.84;12841472;23;19904;-80
2022/03/31 05:04:55;;;;;;;;;;;;;;;5.95;68.04;96106.00;12799664;23;19943;-78
2022/03/31 05:10:16;;;;;;;;;;;;;;;5.95;68.15;96106.00;12849768;23;19920;-80
2022/03/31 05:15:37;;;;;;;;;;;;;;;5.85;68.10;96097.06;12830499;23;19952;-79
2022/03/31 05:20:58;;;;;;;;;;;;;;;5.85;68.07;96090.81;12806652;23;19972;-80
2022/03/31 05:26:23;;;;;;;;;;;;;;;5.87;68.02;96091.66;12830427;23;20367;-80
2022/03/31 05:31:44;;;;;;;;;;;;;;;5.84;68.08;96095.63;12865543;23;19945;-80
2022/03/31 05:37:05;;;;;;;;;;;;;;;5.88;68.00;96097.91;12823557;23;19970;-81
2022/03/31 05:42:26;;;;;;;;;;;;;;;5.87;67.16;96079.84;12847093;23;19921;-80
2022/03/31 05:47:47;;;;;;;;;;;;;;;5.77;67.08;96107.66;12797863;23;19991;-80
2022/03/31 05:53:08;;;;;;;;;;;;;;;5.64;67.20;96105.50;12802495;23;19920;-80
2022/03/31 05:58:28;;;;;;;;;;;;;;;5.50;67.77;96116.47;12834512;23;19960;-80
2022/03/31 06:03:49;;;;;;;;;;;;;;;5.49;67.36;96125.34;12813385;23;19920;-81
2022/03/31 06:09:10;;;;;;;;;;;;;;;5.54;67.46;96115.97;12823441;23;19940;-79
2022/03/31 06:14:30;;;;;;;;;;;;;;;5.45;67.17;96123.78;12807794;23;19924;-79
2022/03/31 06:19:51;;;;;;;;;;;;;;;5.47;67.13;96110.06;12874901;23;19936;-80
2022/03/31 06:25:12;;;;;;;;;;;;;;;5.42;67.14;96111.16;12831278;23;19947;-80
2022/03/31 06:30:32;;;;;;;;;;;;;;;5.45;66.97;96112.00;12810415;23;19919;-80
2022/03/31 06:35:53;;;;;;;;;;;;;;;5.54;66.78;96113.22;12852942;23;19931;-80
2022/03/31 06:41:15;;;;;;;;;;;;;;;5.65;66.67;96101.41;12826221;23;19962;-80
2022/03/31 06:46:36;;;;;;;;;;;;;;;5.88;66.77;96101.41;12814899;23;19996;-80
2022/03/31 06:51:57;;;;;;;;;;;;;;;5.89;65.97;96105.63;12814455;23;19920;-81
2022/03/31 06:57:18;;;;;;;;;;;;;;;5.95;66.17;96099.75;12813561;23;19921;-79
2022/03/31 07:02:39;;;;;;;;;;;;;;;5.95;65.84;96102.53;12817918;23;19944;-80
2022/03/31 07:08:00;;;;;;;;;;;;;;;5.79;65.38;96105.03;12837861;23;19921;-81
2022/03/31 07:13:21;;;;;;;;;;;;;;;5.77;65.88;96104.91;12845193;23;20416;-80
2022/03/31 07:18:42;;;;;;;;;;;;;;;5.88;65.66;96106.22;12822118;23;19976;-81
2022/03/31 07:24:04;;;;;;;;;;;;;;;6.05;65.69;96102.38;12845028;23;19924;-80
2022/03/31 07:29:25;;;;;;;;;;;;;;;6.34;65.11;96088.84;12817752;23;19936;-80
2022/03/31 07:34:46;;;;;;;;;;;;;;;6.29;64.69;96096.22;12843927;23;19952;-80
2022/03/31 07:40:09;;;;;;;;;;;;;;;6.20;64.72;96112.97;12772545;23;19928;-80
2022/03/31 07:45:31;;;;;;;;;;;;;;;5.97;65.40;96114.44;12835305;23;20318;-80
2022/03/31 07:50:55;;;;;;;;;;;;;;;5.85;64.90;96113.69;12818037;23;19963;-80
2022/03/31 07:56:16;;;;;;;;;;;;;;;5.86;65.29;96115.13;12826583;23;19964;-81
2022/03/31 08:01:37;;;;;;;;;;;;;;;5.97;65.70;96119.97;12797017;23;19964;-80
2022/03/31 08:06:58;;;;;;;;;;;;;;;5.92;65.51;96128.66;12821261;23;19920;-80
2022/03/31 08:12:20;;;;;;;;;;;;;;;5.92;66.32;96134.19;12824487;23;19921;-80
2022/03/31 08:17:41;;;;;;;;;;;;;;;5.88;66.05;96136.69;12829891;23;19932;-80
2022/03/31 08:23:03;;;;;;;;;;;;;;;5.64;66.18;96131.16;12829156;23;19928;-80
2022/03/31 08:28:25;;;;;;;;;;;;;;;5.52;66.87;96135.22;12816583;23;19931;-80
2022/03/31 08:33:45;;;;;;;;;;;;;;;5.44;67.55;96129.91;12825398;23;19920;-80
2022/03/31 08:39:06;;;;;;;;;;;;;;;5.46;67.20;96127.28;12823733;23;19920;-80
2022/03/31 08:44:27;;;;;;;;;;;;;;;5.49;68.27;96128.84;12819851;23;19920;-81
2022/03/31 08:49:48;;;;;;;;;;;;;;;5.59;68.15;96106.56;12843097;23;19904;-80
2022/03/31 08:55:09;;;;;;;;;;;;;;;5.67;67.64;96109.84;12795962;23;19924;-80
2022/03/31 09:00:30;;;;;;;;;;;;;;;5.69;67.44;96107.94;12814981;23;20316;-80
2022/03/31 09:05:52;;;;;;;;;;;;;;;5.80;67.28;96112.03;12774132;23;19959;-80
2022/03/31 09:11:14;;;;;;;;;;;;;;;5.86;67.43;96108.88;12796141;23;19924;-80
2022/03/31 09:16:35;;;;;;;;;;;;;;;6.05;67.15;96091.31;12798844;23;19916;-80
2022/03/31 09:22:01;;;;;;;;;;;;;;;6.28;66.42;96091.28;12782343;23;19926;-76
2022/03/31 09:27:26;;;;;;;;;;;;;;;6.39;66.33;96084.25;12763255;23;20228;-77
2022/03/31 09:32:48;;;;;;;;;;;;;;;6.47;66.22;96079.91;12760880;23;20003;-77
2022/03/31 09:38:12;;;;;;;;;;;;;;;6.62;66.10;96091.78;12782051;23;19932;-77
2022/03/31 09:43:40;;;;;;;;;;;;;;;6.44;65.35;96086.63;12779491;23;19928;-77
2022/03/31 09:49:14;;;;;;;;;;;;;;;6.45;65.94;96098.44;12782164;23;19987;-77
2022/03/31 09:54:35;;;;;;;;;;;;;;;6.37;65.76;96087.66;12782033;23;19995;-77
2022/03/31 09:59:56;;;;;;;;;;;;;;;6.45;65.58;96088.09;12801264;23;20003;-76
2022/03/31 10:05:16;;;;;;;;;;;;;;;6.60;65.87;96090.34;12761028;23;20295;-77
2022/03/31 10:10:38;;;;;;;;;;;;;;;6.68;65.27;96078.25;12801454;23;20273;-77
2022/03/31 10:15:59;;;;;;;;;;;;;;;6.54;65.22;96087.22;12801783;23;19920;-76
2022/03/31 10:21:25;;;;;;;;;;;;;;;6.58;65.22;96081.91;12824057;23;19927;-76
2022/03/31 10:26:55;;;;;;;;;;;;;;;6.60;64.75;96078.53;12780076;23;20240;-76
2022/03/31 10:32:15;;;;;;;;;;;;;;;6.68;64.99;96083.81;12758695;23;19920;-76
2022/03/31 10:37:37;;;;;;;;;;;;;;;6.71;64.74;96074.25;12798673;23;19920;-75
2022/03/31 10:42:58;;;;;;;;;;;;;;;6.78;64.65;96085.09;12800375;23;19940;-76
2022/03/31 10:48:19;;;;;;;;;;;;;;;6.91;64.88;96080.91;12809426;23;19927;-80
2022/03/31 10:53:41;;;;;;;;;;;;;;;6.87;64.12;96075.16;12757827;23;20319;-78
2022/03/31 10:59:03;;;;;;;;;;;;;;;6.84;63.86;96065.97;12760867;23;19920;-77
2022/03/31 11:04:24;;;;;;;;;;;;;;;6.72;64.14;96056.28;12759197;23;19924;-77
2022/03/31 11:09:45;;;;;;;;;;;;;;;6.90;64.38;96040.66;12798687;23;19920;-78
2022/03/31 11:15:08;;;;;;;;;;;;;;;7.31;64.02;96028.91;12800628;23;19947;-78
2022/03/31 11:20:29;;;;;;;;;;;;;;;7.60;62.86;96026.28;12758836;23;19924;-78
2022/03/31 11:25:50;;;;;;;;;;;;;;;7.57;61.71;96038.63;12799315;23;19928;-76
2022/03/31 11:31:11;;;;;;;;;;;;;;;7.62;62.24;96031.94;12799084;23;19927;-77
2022/03/31 11:36:37;;;;;;;;;;;;;;;7.66;61.55;96034.94;12778605;23;19924;-76
2022/03/31 11:41:59;;;;;;;;;;;;;;;7.38;61.25;96025.13;12777526;23;19920;-77
2022/03/31 11:47:20;;;;;;;;;;;;;;;7.37;61.55;96026.47;12781335;23;19970;-78
2022/03/31 11:52:41;;;;;;;;;;;;;;;7.30;61.65;96030.25;12797931;23;20278;-77
2022/03/31 11:58:02;;;;;;;;;;;;;;;7.23;61.51;96022.94;12777378;23;19943;-77
2022/03/31 12:03:31;;;;;;;;;;;;;;;7.07;61.83;96014.50;12776565;23;19974;-76
2022/03/31 12:08:54;;;;;;;;;;;;;;;7.13;62.01;96007.19;12760409;23;19920;-77
2022/03/31 12:14:15;;;;;;;;;;;;;;;7.09;61.71;96009.06;12779765;23;19931;-78
2022/03/31 12:19:42;;;;;;;;;;;;;;;7.07;61.64;96001.34;12783073;23;19924;-79
2022/03/31 12:25:02;;;;;;;;;;;;;;;7.01;61.58;96008.63;12778833;23;20257;-78
2022/03/31 12:30:23;;;;;;;;;;;;;;;6.98;61.68;95995.97;12804186;23;20000;-79
2022/03/31 12:36:10;;;;;;;;;;;;;;;7.15;61.66;95996.22;12758863;23;19920;-79
2022/03/31 12:41:35;;;;;;;;;;;;;;;7.22;61.70;95985.44;12781130;23;19975;-79
2022/03/31 12:46:56;;;;;;;;;;;;;;;7.26;61.25;95988.44;12765219;23;19975;-79
2022/03/31 12:52:18;;;;;;;;;;;;;;;7.17;61.48;95982.44;12788335;23;19927;-80
2022/03/31 12:57:39;;;;;;;;;;;;;;;7.08;62.08;95975.03;12765350;23;19964;-80
2022/03/31 13:03:00;;;;;;;;;;;;;;;7.02;62.37;95977.47;12765822;23;20278;-79
2022/03/31 13:08:20;;;;;;;;;;;;;;;7.18;62.24;95978.34;12811967;23;19920;-80
2022/03/31 13:13:42;;;;;;;;;;;;;;;7.28;62.70;95967.03;12769524;23;19920;-80
2022/03/31 13:19:10;;;;;;;;;;;;;;;7.29;63.06;95959.44;12794799;23;19972;-80
2022/03/31 13:24:30;;;;;;;;;;;;;;;7.16;63.59;95969.91;12793590;23;19920;-80
2022/03/31 13:29:51;;;;;;;;;;;;;;;7.21;64.34;95956.25;12812062;23;19971;-79
2022/03/31 13:35:12;;;;;;;;;;;;;;;7.14;63.94;95963.53;12811393;23;19991;-80
2022/03/31 13:40:37;;;;;;;;;;;;;;;7.21;64.22;95956.25;12796876;23;19987;-80
2022/03/31 13:45:58;;;;;;;;;;;;;;;7.14;64.61;95949.66;12796339;23;19928;-80
2022/03/31 13:51:19;;;;;;;;;;;;;;;7.29;64.59;95945.56;12757700;23;20367;-79
2022/03/31 13:56:42;;;;;;;;;;;;;;;7.23;64.76;95943.19;12798776;23;19924;-80
2022/03/31 14:02:04;;;;;;;;;;;;;;;7.14;65.91;95936.53;12792899;23;19927;-79
2022/03/31 14:07:25;;;;;;;;;;;;;;;7.15;65.57;95943.50;12782640;23;19999;-77
2022/03/31 14:12:46;;;;;;;;;;;;;;;6.88;65.71;95940.69;12803592;23;19921;-81
2022/03/31 14:18:07;;;;;;;;;;;;;;;6.64;65.48;95925.53;12763387;23;19920;-78
2022/03/31 14:23:28;;;;;;;;;;;;;;;6.58;65.46;95926.66;12801849;23;19973;-77
2022/03/31 14:28:49;;;;;;;;;;;;;;;6.68;65.25;95926.47;12780993;23;20231;-78
2022/03/31 14:34:11;;;;;;;;;;;;;;;6.82;64.82;95924.44;12715355;23;19920;-77
2022/03/31 14:39:33;;;;;;;;;;;;;;;6.81;64.55;95920.22;12801320;23;19927;-77
2022/03/31 14:44:53;;;;;;;;;;;;;;;6.82;64.33;95918.19;12780477;23;19936;-77
2022/03/31 14:50:14;;;;;;;;;;;;;;;6.79;64.20;95922.91;12823372;23;19927;-79
2022/03/31 14:55:36;;;;;;;;;;;;;;;6.79;63.61;95916.63;12780776;23;20230;-78
2022/03/31 15:00:57;;;;;;;;;;;;;;;6.72;64.18;95914.88;12753122;23;19943;-77
2022/03/31 15:18:00;;;;;;;;;;;;;;;6.68;63.74;95895.25;12904599;23;19911;-82
2022/03/31 15:23:25;;;;;;;;;;;;;;;6.71;63.19;95907.88;12879474;23;19939;-83
2022/03/31 15:28:46;;;;;;;;;;;;;;;6.60;63.07;95903.88;12861580;23;19920;-82
2022/03/31 15:34:07;;;;;;;;;;;;;;;6.48;63.84;95892.84;12834265;23;19927;-80
2022/03/31 15:45:47;;;;;;;;;;;;;;;6.32;63.43;95898.25;12849173;23;19904;31
2022/03/31 15:51:08;;;;;;;;;;;;;;;6.41;63.36;95907.72;12659646;23;19925;-79
2022/03/31 15:56:29;;;;;;;;;;;;;;;6.27;63.79;95898.63;12660343;23;19972;-80
2022/03/31 16:01:50;;;;;;;;;;;;;;;6.26;63.53;95905.50;12718705;23;19905;-82
2022/03/31 16:07:11;;;;;;;;;;;;;;;6.11;63.86;95911.59;12628315;23;19906;-77
2022/03/31 16:12:34;;;;;;;;;;;;;;;6.00;64.24;95907.56;12716992;23;20104;-79
2022/03/31 16:17:55;;;;;;;;;;;;;;;6.02;64.97;95908.38;12829959;23;19912;-78
2022/03/31 16:23:44;;;;;;;;;;;;;;;5.93;64.16;95909.25;12801750;23;19904;-82
2022/03/31 16:29:05;;;;;;;;;;;;;;;5.73;64.87;95913.66;12829481;23;19959;-82
2022/03/31 16:34:27;;;;;;;;;;;;;;;5.66;64.27;95920.16;12856047;23;19910;-78
2022/03/31 16:39:48;;;;;;;;;;;;;;;5.57;64.61;95918.25;12850212;23;19931;-82
2022/03/31 16:51:13;;;;;;;;;;;;;;;5.42;64.81;95931.28;12856824;23;19967;-81
2022/03/31 16:56:34;;;;;;;;;;;;;;;5.37;64.99;95926.84;12749401;23;19927;-81
2022/03/31 17:01:57;;;;;;;;;;;;;;;5.38;65.39;95936.56;12709910;23;19932;-80
2022/03/31 17:07:18;;;;;;;;;;;;;;;5.39;65.03;95938.00;12666657;23;19921;-80
2022/03/31 17:12:39;;;;;;;;;;;;;;;5.41;65.26;95942.97;12714128;23;20292;-79
2022/03/31 17:18:06;;;;;;;;;;;;;;;5.25;65.08;95939.25;12708351;23;20315;-82
2022/03/31 17:23:28;;;;;;;;;;;;;;;5.17;64.77;95936.72;12659374;23;19921;-80
2022/03/31 17:28:48;;;;;;;;;;;;;;;5.12;65.61;95943.34;12699831;23;20003;-79
2022/03/31 17:34:09;;;;;;;;;;;;;;;5.13;66.15;95944.78;12699664;23;19981;-79
2022/03/31 17:39:33;;;;;;;;;;;;;;;5.15;65.26;95950.44;12700351;23;19925;-80
2022/03/31 17:44:54;;;;;;;;;;;;;;;5.11;65.04;95950.91;12700184;23;20345;-79
2022/03/31 17:50:15;;;;;;;;;;;;;;;5.06;65.20;95954.75;12680414;23;19920;-82
2022/03/31 17:55:36;;;;;;;;;;;;;;;4.97;66.06;95952.09;12662796;23;19931;-79
2022/03/31 18:00:57;;;;;;;;;;;;;;;4.88;65.98;95953.66;12699231;23;19925;-77
2022/03/31 18:06:20;;;;;;;;;;;;;;;4.76;66.47;95964.72;12685603;23;19921;-76
2022/03/31 18:11:41;;;;;;;;;;;;;;;4.77;66.30;95957.88;12699887;23;19920;-78
2022/03/31 18:17:02;;;;;;;;;;;;;;;4.70;66.45;95972.63;12699591;23;19928;-78
2022/03/31 18:22:23;;;;;;;;;;;;;;;4.61;66.43;95970.69;12699569;23;19921;-78
2022/03/31 18:27:43;;;;;;;;;;;;;;;4.50;66.21;95983.16;12698548;23;20315;-77
2022/03/31 18:38:44;;;;;;;;;;;;;;;4.38;66.33;95990.69;12677759;23;20243;-77
2022/03/31 18:44:05;;;;;;;;;;;;;;;4.28;66.92;95985.25;12698102;23;19927;-77
2022/03/31 18:49:27;;;;;;;;;;;;;;;4.27;67.20;95986.56;12678915;23;20000;-77
2022/03/31 18:54:48;;;;;;;;;;;;;;;4.33;67.12;95997.25;12678568;23;19921;-78
2022/03/31 19:00:10;;;;;;;;;;;;;;;4.37;66.82;95988.53;12677247;23;19921;-78
2022/03/31 19:05:31;;;;;;;;;;;;;;;4.30;66.85;95981.88;12686889;23;19928;-79
2022/03/31 19:10:52;;;;;;;;;;;;;;;4.30;66.80;95988.13;12698345;23;19927;-78
2022/03/31 19:16:13;;;;;;;;;;;;;;;4.26;66.99;95982.38;12699318;23;19928;-79
2022/03/31 19:21:34;;;;;;;;;;;;;;;4.27;67.21;95994.84;12697614;23;19921;-79
2022/03/31 19:26:55;;;;;;;;;;;;;;;4.14;66.80;95984.34;12698266;23;20011;-77
